DLH278 LEPA-EDDH
Flight info
| Callsign | DLH278 |
|---|---|
| Flight time | 2h 9m |
| Altitude | 43000 |
| Route | MEROS N853 LUMAS DCT MAXIR DCT LUSOL DCT BODRU DCT OKTET DCT IRMAR DCT KINES DCT VANAS DCT MOBLO DCT UBIMA DCT SOSAL DCT KORED DCT BERSU N871 DITON/N0483F410 DCT LOKTA/N0480F390 DCT TEDGO DCT HAREM DCT LOHRE DCT ELNAT/N0489F430 P605 NOLGO NOLGO3S |
| Aircraft | A359/H-SDE2E3GHIJ3J4J5LM1ORWXY/LB1D1 |
Departure
| Time | 2026-05-04 17:23 |
|---|---|
| Airport | Palma de Mallorca Airport (LEPA) |
Arrival
| Time | 2026-05-04 19:32 |
|---|---|
| Airport | Hamburg Helmut Schmidt Airport (EDDH) |
| Time | Latitude | Longitude | Altitude | Speed | Heading |
|---|---|---|---|---|---|
| 2026-05-04 16:38 | 39.55111 | 2.72899 | 45 ft | 0 kts | 163° |
| 2026-05-04 17:08 | 39.55116 | 2.72897 | 45 ft | 1 kts | 163° |
| 2026-05-04 17:09 | 39.55133 | 2.72890 | 43 ft | 3 kts | 160° |
| 2026-05-04 17:09 | 39.55152 | 2.72877 | 42 ft | 3 kts | 136° |
| 2026-05-04 17:09 | 39.55164 | 2.72856 | 40 ft | 3 kts | 113° |
| 2026-05-04 17:10 | 39.55168 | 2.72843 | 43 ft | 0 kts | 100° |
| 2026-05-04 17:14 | 39.55234 | 2.73001 | 44 ft | 12 kts | 52° |
| 2026-05-04 17:14 | 39.55337 | 2.72999 | 44 ft | 13 kts | 330° |
| 2026-05-04 17:14 | 39.55452 | 2.73071 | 44 ft | 13 kts | 56° |
| 2026-05-04 17:15 | 39.55506 | 2.73183 | 44 ft | 17 kts | 58° |
| 2026-05-04 17:15 | 39.55648 | 2.73488 | 44 ft | 22 kts | 58° |
| 2026-05-04 17:16 | 39.55806 | 2.73821 | 44 ft | 21 kts | 58° |
| 2026-05-04 17:16 | 39.55975 | 2.74176 | 44 ft | 0 kts | 58° |
| 2026-05-04 17:17 | 39.55982 | 2.74192 | 44 ft | 6 kts | 58° |
| 2026-05-04 17:17 | 39.56077 | 2.74293 | 44 ft | 0 kts | 28° |
| 2026-05-04 17:19 | 39.56078 | 2.74294 | 44 ft | 1 kts | 28° |
| 2026-05-04 17:19 | 39.56119 | 2.74322 | 44 ft | 0 kts | 28° |
| 2026-05-04 17:20 | 39.56132 | 2.74331 | 44 ft | 5 kts | 27° |
| 2026-05-04 17:21 | 39.56233 | 2.74296 | 44 ft | 8 kts | 284° |
| 2026-05-04 17:21 | 39.56221 | 2.74255 | 44 ft | 0 kts | 239° |
| 2026-05-04 17:23 | 39.56126 | 2.74052 | 45 ft | 67 kts | 238° |
| 2026-05-04 17:23 | 39.55738 | 2.73239 | 45 ft | 146 kts | 238° |
| 2026-05-04 17:23 | 39.54398 | 2.70630 | 1388 ft | 193 kts | 236° |
| 2026-05-04 17:24 | 39.53645 | 2.69057 | 2096 ft | 215 kts | 236° |
| 2026-05-04 17:24 | 39.51298 | 2.64189 | 5338 ft | 204 kts | 239° |
| 2026-05-04 17:25 | 39.50554 | 2.62645 | 6408 ft | 205 kts | 235° |
| 2026-05-04 17:25 | 39.48047 | 2.60398 | 7942 ft | 249 kts | 190° |
| 2026-05-04 17:26 | 39.44923 | 2.62565 | 10068 ft | 291 kts | 126° |
| 2026-05-04 17:26 | 39.42787 | 2.70927 | 12039 ft | 355 kts | 117° |
| 2026-05-04 17:27 | 39.41195 | 2.77184 | 13605 ft | 383 kts | 109° |
| 2026-05-04 17:27 | 39.39963 | 2.84000 | 13967 ft | 391 kts | 103° |
| 2026-05-04 17:28 | 39.39254 | 2.90977 | 13963 ft | 394 kts | 97° |
| 2026-05-04 17:29 | 39.39293 | 3.01597 | 13951 ft | 396 kts | 86° |
| 2026-05-04 17:29 | 39.40996 | 3.11983 | 13955 ft | 397 kts | 73° |
| 2026-05-04 17:30 | 39.42314 | 3.22680 | 15977 ft | 405 kts | 79° |
| 2026-05-04 17:31 | 39.44288 | 3.29541 | 17789 ft | 414 kts | 58° |
| 2026-05-04 17:31 | 39.48927 | 3.39208 | 20157 ft | 433 kts | 58° |
| 2026-05-04 17:32 | 39.52070 | 3.45973 | 21768 ft | 446 kts | 58° |
| 2026-05-04 17:33 | 39.56931 | 3.56560 | 24004 ft | 465 kts | 59° |
| 2026-05-04 17:33 | 39.58598 | 3.60206 | 24707 ft | 469 kts | 59° |
| 2026-05-04 17:34 | 39.63607 | 3.71194 | 26762 ft | 483 kts | 59° |
| 2026-05-04 17:34 | 39.65340 | 3.75004 | 27477 ft | 487 kts | 59° |
| 2026-05-04 17:35 | 39.70572 | 3.86538 | 29425 ft | 501 kts | 60° |
| 2026-05-04 17:35 | 39.74133 | 3.94413 | 30545 ft | 510 kts | 60° |
| 2026-05-04 17:35 | 39.75933 | 3.98401 | 31055 ft | 515 kts | 60° |
| 2026-05-04 17:36 | 39.77752 | 4.02438 | 31558 ft | 518 kts | 60° |
| 2026-05-04 17:36 | 39.79557 | 4.06448 | 32043 ft | 522 kts | 60° |
| 2026-05-04 17:36 | 39.81417 | 4.10583 | 32499 ft | 526 kts | 60° |
| 2026-05-04 17:36 | 39.83246 | 4.14640 | 32941 ft | 530 kts | 60° |
| 2026-05-04 17:37 | 39.85438 | 4.18517 | 33385 ft | 533 kts | 46° |
| 2026-05-04 17:37 | 39.88281 | 4.21652 | 33816 ft | 534 kts | 31° |
| 2026-05-04 17:37 | 39.91581 | 4.23803 | 34146 ft | 532 kts | 16° |
| 2026-05-04 17:37 | 39.95168 | 4.24849 | 34582 ft | 524 kts | 1° |
| 2026-05-04 17:38 | 39.98782 | 4.25296 | 34892 ft | 524 kts | 0° |
| 2026-05-04 17:38 | 40.06023 | 4.26473 | 34958 ft | 524 kts | 4° |
| 2026-05-04 17:39 | 40.16778 | 4.28810 | 34944 ft | 526 kts | 5° |
| 2026-05-04 17:39 | 40.23980 | 4.30485 | 34933 ft | 527 kts | 6° |
| 2026-05-04 17:40 | 40.31215 | 4.32190 | 34936 ft | 527 kts | 6° |
| 2026-05-04 17:40 | 40.38423 | 4.33898 | 34934 ft | 527 kts | 6° |
| 2026-05-04 17:41 | 40.45659 | 4.35619 | 34933 ft | 528 kts | 6° |
| 2026-05-04 17:41 | 40.52842 | 4.37327 | 34931 ft | 528 kts | 6° |
| 2026-05-04 17:42 | 40.60066 | 4.39050 | 34929 ft | 529 kts | 6° |
| 2026-05-04 17:42 | 40.67319 | 4.40789 | 34929 ft | 529 kts | 6° |
| 2026-05-04 17:43 | 40.74569 | 4.42530 | 34928 ft | 529 kts | 6° |
| 2026-05-04 17:43 | 40.81810 | 4.44272 | 34925 ft | 530 kts | 6° |
| 2026-05-04 17:44 | 40.89021 | 4.46010 | 34930 ft | 530 kts | 6° |
| 2026-05-04 17:44 | 40.96263 | 4.47756 | 34927 ft | 530 kts | 6° |
| 2026-05-04 17:45 | 41.03521 | 4.49522 | 34930 ft | 530 kts | 6° |
| 2026-05-04 17:45 | 41.10789 | 4.51298 | 34930 ft | 530 kts | 6° |
| 2026-05-04 17:46 | 41.17988 | 4.53054 | 34929 ft | 530 kts | 6° |
| 2026-05-04 17:46 | 41.25236 | 4.54820 | 34928 ft | 530 kts | 6° |
| 2026-05-04 17:47 | 41.32493 | 4.56593 | 34925 ft | 530 kts | 6° |
| 2026-05-04 17:47 | 41.39757 | 4.58375 | 34926 ft | 530 kts | 6° |
| 2026-05-04 17:48 | 41.47020 | 4.60160 | 34918 ft | 530 kts | 6° |
| 2026-05-04 17:48 | 41.54268 | 4.61946 | 34937 ft | 530 kts | 6° |
| 2026-05-04 17:49 | 41.61444 | 4.63718 | 34946 ft | 530 kts | 6° |
| 2026-05-04 17:49 | 41.68727 | 4.65525 | 34931 ft | 530 kts | 6° |
| 2026-05-04 17:50 | 41.75722 | 4.68717 | 34935 ft | 539 kts | 26° |
| 2026-05-04 17:50 | 41.82261 | 4.73700 | 34932 ft | 540 kts | 28° |
| 2026-05-04 17:51 | 41.88688 | 4.78918 | 35249 ft | 541 kts | 29° |
| 2026-05-04 17:51 | 41.91859 | 4.81509 | 35769 ft | 539 kts | 29° |
| 2026-05-04 17:51 | 41.95039 | 4.84102 | 36306 ft | 537 kts | 28° |
| 2026-05-04 17:52 | 41.98235 | 4.86700 | 36768 ft | 537 kts | 28° |
| 2026-05-04 17:52 | 42.01435 | 4.89293 | 36932 ft | 537 kts | 28° |
| 2026-05-04 17:52 | 42.07833 | 4.94476 | 36944 ft | 536 kts | 28° |
| 2026-05-04 17:53 | 42.14224 | 4.99661 | 36948 ft | 537 kts | 28° |
| 2026-05-04 17:53 | 42.20570 | 5.04826 | 36949 ft | 537 kts | 28° |
| 2026-05-04 17:54 | 42.26969 | 5.10048 | 36954 ft | 538 kts | 28° |
| 2026-05-04 17:54 | 42.33374 | 5.15288 | 36958 ft | 538 kts | 28° |
| 2026-05-04 17:55 | 42.39735 | 5.20506 | 36964 ft | 538 kts | 28° |
| 2026-05-04 17:55 | 42.46142 | 5.25772 | 36970 ft | 538 kts | 28° |
| 2026-05-04 17:56 | 42.52542 | 5.31045 | 36974 ft | 538 kts | 28° |
| 2026-05-04 17:56 | 42.58938 | 5.36329 | 36975 ft | 538 kts | 28° |
| 2026-05-04 17:57 | 42.65287 | 5.41586 | 36984 ft | 538 kts | 28° |
| 2026-05-04 17:57 | 42.71722 | 5.46927 | 36983 ft | 538 kts | 28° |
| 2026-05-04 17:58 | 42.78046 | 5.52190 | 36989 ft | 538 kts | 28° |
| 2026-05-04 17:58 | 42.84433 | 5.57518 | 36992 ft | 537 kts | 28° |
| 2026-05-04 17:59 | 42.90791 | 5.62834 | 36996 ft | 537 kts | 28° |
| 2026-05-04 18:00 | 43.00298 | 5.70808 | 37004 ft | 537 kts | 28° |
| 2026-05-04 18:00 | 43.06665 | 5.76165 | 37008 ft | 536 kts | 28° |
| 2026-05-04 18:01 | 43.12997 | 5.81505 | 37014 ft | 536 kts | 28° |
| 2026-05-04 18:01 | 43.19356 | 5.86881 | 37020 ft | 535 kts | 28° |
| 2026-05-04 18:02 | 43.28805 | 5.94895 | 37024 ft | 535 kts | 29° |
| 2026-05-04 18:02 | 43.35180 | 6.00286 | 37037 ft | 541 kts | 27° |
| 2026-05-04 18:03 | 43.42125 | 6.04005 | 37049 ft | 532 kts | 7° |
| 2026-05-04 18:03 | 43.49404 | 6.05170 | 37033 ft | 526 kts | 359° |
| 2026-05-04 18:04 | 43.56693 | 6.05872 | 37038 ft | 520 kts | 359° |
| 2026-05-04 18:05 | 43.67416 | 6.06871 | 37040 ft | 513 kts | 359° |
| 2026-05-04 18:05 | 43.74458 | 6.07711 | 37044 ft | 516 kts | 4° |
| 2026-05-04 18:06 | 43.84668 | 6.12827 | 37052 ft | 525 kts | 22° |
| 2026-05-04 18:06 | 43.91234 | 6.17320 | 37037 ft | 525 kts | 23° |
| 2026-05-04 18:07 | 43.97723 | 6.21832 | 37058 ft | 525 kts | 23° |
| 2026-05-04 18:07 | 44.04249 | 6.26335 | 37042 ft | 524 kts | 23° |
| 2026-05-04 18:08 | 44.10773 | 6.30819 | 37047 ft | 523 kts | 23° |
| 2026-05-04 18:08 | 44.17311 | 6.35316 | 37049 ft | 523 kts | 23° |
| 2026-05-04 18:09 | 44.30324 | 6.44298 | 37076 ft | 524 kts | 23° |
| 2026-05-04 18:10 | 44.36845 | 6.48825 | 37087 ft | 524 kts | 23° |
| 2026-05-04 18:10 | 44.43236 | 6.53267 | 37096 ft | 524 kts | 23° |
| 2026-05-04 18:11 | 44.49757 | 6.57809 | 37106 ft | 524 kts | 23° |
| 2026-05-04 18:11 | 44.56243 | 6.62333 | 37113 ft | 524 kts | 24° |
| 2026-05-04 18:12 | 44.62771 | 6.66910 | 37122 ft | 524 kts | 23° |
| 2026-05-04 18:12 | 44.69281 | 6.71478 | 37128 ft | 523 kts | 24° |
| 2026-05-04 18:13 | 44.75823 | 6.75988 | 37133 ft | 521 kts | 20° |
| 2026-05-04 18:13 | 44.82747 | 6.78516 | 37132 ft | 510 kts | 1° |
| 2026-05-04 18:14 | 44.86251 | 6.78657 | 37143 ft | 505 kts | 354° |
| 2026-05-04 18:14 | 44.93218 | 6.78304 | 37127 ft | 504 kts | 352° |
| 2026-05-04 18:15 | 45.07239 | 6.77256 | 37129 ft | 504 kts | 352° |
| 2026-05-04 18:16 | 45.14192 | 6.76785 | 37126 ft | 505 kts | 353° |
| 2026-05-04 18:16 | 45.21240 | 6.76319 | 37117 ft | 503 kts | 353° |
| 2026-05-04 18:17 | 45.31695 | 6.75625 | 37102 ft | 504 kts | 353° |
| 2026-05-04 18:18 | 45.42232 | 6.74929 | 37094 ft | 504 kts | 353° |
| 2026-05-04 18:18 | 45.49192 | 6.74458 | 37081 ft | 504 kts | 353° |
| 2026-05-04 18:19 | 45.59719 | 6.73726 | 37073 ft | 506 kts | 353° |
| 2026-05-04 18:19 | 45.66730 | 6.73242 | 37075 ft | 505 kts | 353° |
| 2026-05-04 18:20 | 45.73769 | 6.72760 | 37068 ft | 506 kts | 353° |
| 2026-05-04 18:20 | 45.80804 | 6.72278 | 37061 ft | 506 kts | 353° |
| 2026-05-04 18:21 | 45.87835 | 6.71805 | 37061 ft | 507 kts | 353° |
| 2026-05-04 18:21 | 45.94833 | 6.71328 | 37058 ft | 506 kts | 353° |
| 2026-05-04 18:22 | 46.01873 | 6.70847 | 37039 ft | 506 kts | 353° |
| 2026-05-04 18:22 | 46.08910 | 6.70382 | 37046 ft | 507 kts | 354° |
| 2026-05-04 18:23 | 46.15957 | 6.71542 | 37039 ft | 516 kts | 11° |
| 2026-05-04 18:23 | 46.22849 | 6.74307 | 37043 ft | 517 kts | 13° |
| 2026-05-04 18:24 | 46.29754 | 6.77284 | 37033 ft | 517 kts | 13° |
| 2026-05-04 18:24 | 46.36628 | 6.80248 | 37025 ft | 516 kts | 13° |
| 2026-05-04 18:25 | 46.43535 | 6.83198 | 37038 ft | 516 kts | 13° |
| 2026-05-04 18:25 | 46.50395 | 6.86221 | 37036 ft | 517 kts | 18° |
| 2026-05-04 18:26 | 46.56634 | 6.91193 | 37028 ft | 522 kts | 37° |
| 2026-05-04 18:26 | 46.61682 | 6.98856 | 37028 ft | 523 kts | 50° |
| 2026-05-04 18:27 | 46.66247 | 7.07089 | 37027 ft | 523 kts | 51° |
| 2026-05-04 18:27 | 46.70791 | 7.15390 | 37022 ft | 523 kts | 51° |
| 2026-05-04 18:28 | 46.75318 | 7.23638 | 37027 ft | 522 kts | 51° |
| 2026-05-04 18:28 | 46.79837 | 7.31864 | 37018 ft | 522 kts | 51° |
| 2026-05-04 18:29 | 46.84366 | 7.40125 | 37015 ft | 521 kts | 51° |
| 2026-05-04 18:29 | 46.88284 | 7.47284 | 37011 ft | 521 kts | 51° |
| 2026-05-04 18:30 | 46.95035 | 7.59719 | 37031 ft | 520 kts | 51° |
| 2026-05-04 18:31 | 46.99478 | 7.67934 | 37026 ft | 519 kts | 51° |
| 2026-05-04 18:31 | 47.03966 | 7.76251 | 37004 ft | 519 kts | 51° |
| 2026-05-04 18:32 | 47.08416 | 7.84519 | 37018 ft | 518 kts | 51° |
| 2026-05-04 18:32 | 47.12849 | 7.92826 | 37001 ft | 518 kts | 53° |
| 2026-05-04 18:33 | 47.16799 | 8.01644 | 37024 ft | 517 kts | 58° |
| 2026-05-04 18:33 | 47.20595 | 8.10504 | 37023 ft | 517 kts | 58° |
| 2026-05-04 18:34 | 47.24410 | 8.19531 | 37020 ft | 516 kts | 58° |
| 2026-05-04 18:34 | 47.28209 | 8.28375 | 37017 ft | 516 kts | 54° |
| 2026-05-04 18:35 | 47.33154 | 8.35975 | 37002 ft | 513 kts | 36° |
| 2026-05-04 18:35 | 47.38986 | 8.41877 | 36993 ft | 512 kts | 32° |
| 2026-05-04 18:36 | 47.44907 | 8.47567 | 36993 ft | 512 kts | 32° |
| 2026-05-04 18:36 | 47.50864 | 8.53298 | 36994 ft | 512 kts | 32° |
| 2026-05-04 18:37 | 47.56804 | 8.59065 | 36995 ft | 511 kts | 32° |
| 2026-05-04 18:37 | 47.62736 | 8.64857 | 36996 ft | 511 kts | 32° |
| 2026-05-04 18:38 | 47.68721 | 8.70719 | 36993 ft | 511 kts | 32° |
| 2026-05-04 18:38 | 47.74566 | 8.76457 | 36993 ft | 510 kts | 32° |
| 2026-05-04 18:39 | 47.80522 | 8.82320 | 36972 ft | 510 kts | 33° |
| 2026-05-04 18:39 | 47.86411 | 8.88134 | 36986 ft | 510 kts | 33° |
| 2026-05-04 18:40 | 47.92327 | 8.93991 | 36985 ft | 510 kts | 33° |
| 2026-05-04 18:40 | 47.98250 | 8.99870 | 36979 ft | 510 kts | 33° |
| 2026-05-04 18:41 | 48.04115 | 9.05708 | 36976 ft | 510 kts | 33° |
| 2026-05-04 18:41 | 48.09997 | 9.11579 | 36981 ft | 510 kts | 33° |
| 2026-05-04 18:42 | 48.16172 | 9.16828 | 36982 ft | 509 kts | 21° |
| 2026-05-04 18:42 | 48.22958 | 9.19353 | 36969 ft | 505 kts | 6° |
| 2026-05-04 18:43 | 48.29945 | 9.20616 | 36969 ft | 506 kts | 4° |
| 2026-05-04 18:43 | 48.36947 | 9.21728 | 36972 ft | 506 kts | 4° |
| 2026-05-04 18:44 | 48.43973 | 9.22878 | 36979 ft | 506 kts | 4° |
| 2026-05-04 18:44 | 48.50984 | 9.24060 | 36968 ft | 507 kts | 4° |
| 2026-05-04 18:45 | 48.57911 | 9.25243 | 36969 ft | 507 kts | 4° |
| 2026-05-04 18:45 | 48.64907 | 9.26433 | 36965 ft | 506 kts | 4° |
| 2026-05-04 18:46 | 48.71956 | 9.27509 | 36965 ft | 506 kts | 4° |
| 2026-05-04 18:46 | 48.78952 | 9.28544 | 36966 ft | 506 kts | 4° |
| 2026-05-04 18:47 | 48.85952 | 9.29603 | 36968 ft | 506 kts | 4° |
| 2026-05-04 18:47 | 48.92967 | 9.30680 | 36968 ft | 507 kts | 4° |
| 2026-05-04 18:48 | 48.99985 | 9.31766 | 36969 ft | 507 kts | 4° |
| 2026-05-04 18:48 | 49.06902 | 9.32836 | 36969 ft | 507 kts | 4° |
| 2026-05-04 18:49 | 49.14003 | 9.33938 | 36966 ft | 507 kts | 4° |
| 2026-05-04 18:49 | 49.21028 | 9.35031 | 36967 ft | 508 kts | 4° |
| 2026-05-04 18:50 | 49.27955 | 9.36110 | 36966 ft | 508 kts | 4° |
| 2026-05-04 18:50 | 49.35019 | 9.37217 | 36966 ft | 508 kts | 4° |
| 2026-05-04 18:51 | 49.42063 | 9.38324 | 36967 ft | 508 kts | 4° |
| 2026-05-04 18:51 | 49.49071 | 9.39427 | 36966 ft | 508 kts | 4° |
| 2026-05-04 18:52 | 49.54942 | 9.40353 | 36965 ft | 508 kts | 4° |
| 2026-05-04 18:52 | 49.63109 | 9.41646 | 36967 ft | 508 kts | 4° |
| 2026-05-04 18:53 | 49.70160 | 9.42775 | 36967 ft | 509 kts | 4° |
| 2026-05-04 18:53 | 49.77144 | 9.43885 | 36967 ft | 508 kts | 4° |
| 2026-05-04 18:54 | 49.83055 | 9.44829 | 36963 ft | 508 kts | 3° |
| 2026-05-04 18:54 | 49.90096 | 9.45958 | 36966 ft | 508 kts | 3° |
| 2026-05-04 18:55 | 49.97131 | 9.47091 | 36968 ft | 509 kts | 3° |
| 2026-05-04 18:55 | 50.07680 | 9.48798 | 36967 ft | 508 kts | 3° |
| 2026-05-04 18:56 | 50.14726 | 9.50019 | 36966 ft | 509 kts | 4° |
| 2026-05-04 18:56 | 50.21687 | 9.51267 | 36965 ft | 509 kts | 4° |
| 2026-05-04 18:57 | 50.28730 | 9.52523 | 36966 ft | 509 kts | 4° |
| 2026-05-04 18:57 | 50.35746 | 9.53770 | 36966 ft | 509 kts | 4° |
| 2026-05-04 18:58 | 50.42804 | 9.55014 | 36964 ft | 509 kts | 4° |
| 2026-05-04 18:58 | 50.49813 | 9.56264 | 36960 ft | 509 kts | 4° |
| 2026-05-04 18:59 | 50.56811 | 9.57525 | 36967 ft | 509 kts | 4° |
| 2026-05-04 18:59 | 50.63914 | 9.58805 | 37251 ft | 508 kts | 4° |
| 2026-05-04 19:00 | 50.67357 | 9.59425 | 37703 ft | 508 kts | 4° |
| 2026-05-04 19:00 | 50.70893 | 9.60062 | 37946 ft | 510 kts | 4° |
| 2026-05-04 19:00 | 50.77918 | 9.61331 | 37965 ft | 507 kts | 4° |
| 2026-05-04 19:01 | 50.84928 | 9.62602 | 37964 ft | 507 kts | 3° |
| 2026-05-04 19:01 | 50.91959 | 9.63880 | 37973 ft | 507 kts | 3° |
| 2026-05-04 19:02 | 50.98975 | 9.65159 | 37970 ft | 507 kts | 3° |
| 2026-05-04 19:02 | 51.05944 | 9.66434 | 37980 ft | 507 kts | 3° |
| 2026-05-04 19:03 | 51.12892 | 9.67711 | 37991 ft | 507 kts | 3° |
| 2026-05-04 19:03 | 51.19894 | 9.68999 | 37974 ft | 506 kts | 3° |
| 2026-05-04 19:04 | 51.26860 | 9.70189 | 37982 ft | 505 kts | 2° |
| 2026-05-04 19:04 | 51.33892 | 9.71297 | 37985 ft | 505 kts | 2° |
| 2026-05-04 19:05 | 51.40846 | 9.72346 | 37990 ft | 504 kts | 2° |
| 2026-05-04 19:05 | 51.47796 | 9.73462 | 37987 ft | 504 kts | 3° |
| 2026-05-04 19:06 | 51.54772 | 9.74888 | 37985 ft | 504 kts | 4° |
| 2026-05-04 19:06 | 51.61714 | 9.76310 | 37980 ft | 504 kts | 4° |
| 2026-05-04 19:07 | 51.68706 | 9.77732 | 37975 ft | 504 kts | 4° |
| 2026-05-04 19:07 | 51.75662 | 9.79148 | 37980 ft | 503 kts | 4° |
| 2026-05-04 19:08 | 51.81417 | 9.80321 | 37981 ft | 503 kts | 4° |
| 2026-05-04 19:08 | 51.87333 | 9.81530 | 37977 ft | 503 kts | 4° |
| 2026-05-04 19:09 | 51.94267 | 9.82952 | 37972 ft | 502 kts | 4° |
| 2026-05-04 19:09 | 52.01179 | 9.84372 | 37970 ft | 502 kts | 4° |
| 2026-05-04 19:10 | 52.08132 | 9.85806 | 37977 ft | 502 kts | 4° |
| 2026-05-04 19:10 | 52.15051 | 9.87236 | 37972 ft | 502 kts | 4° |
| 2026-05-04 19:11 | 52.21890 | 9.88655 | 37967 ft | 502 kts | 4° |
| 2026-05-04 19:11 | 52.28874 | 9.90109 | 37967 ft | 502 kts | 4° |
| 2026-05-04 19:12 | 52.39249 | 9.92278 | 37965 ft | 501 kts | 4° |
| 2026-05-04 19:13 | 52.46143 | 9.93693 | 37967 ft | 500 kts | 4° |
| 2026-05-04 19:13 | 52.53014 | 9.95173 | 37565 ft | 498 kts | 4° |
| 2026-05-04 19:13 | 52.56471 | 9.95913 | 36883 ft | 500 kts | 4° |
| 2026-05-04 19:14 | 52.59872 | 9.96636 | 36012 ft | 502 kts | 3° |
| 2026-05-04 19:14 | 52.63343 | 9.97374 | 35144 ft | 504 kts | 3° |
| 2026-05-04 19:14 | 52.66826 | 9.98114 | 34304 ft | 507 kts | 2° |
| 2026-05-04 19:14 | 52.70344 | 9.98860 | 33387 ft | 510 kts | 2° |
| 2026-05-04 19:15 | 52.73852 | 9.99602 | 32455 ft | 513 kts | 2° |
| 2026-05-04 19:15 | 52.77427 | 10.00360 | 31536 ft | 516 kts | 3° |
| 2026-05-04 19:15 | 52.80933 | 10.01106 | 30674 ft | 518 kts | 3° |
| 2026-05-04 19:15 | 52.84535 | 10.01875 | 29783 ft | 521 kts | 3° |
| 2026-05-04 19:16 | 52.88160 | 10.02652 | 28789 ft | 521 kts | 3° |
| 2026-05-04 19:16 | 52.91685 | 10.03410 | 27859 ft | 516 kts | 3° |
| 2026-05-04 19:16 | 52.95238 | 10.04174 | 26932 ft | 511 kts | 4° |
| 2026-05-04 19:16 | 52.98764 | 10.04929 | 26047 ft | 506 kts | 3° |
| 2026-05-04 19:17 | 53.02203 | 10.05657 | 25373 ft | 497 kts | 4° |
| 2026-05-04 19:17 | 53.05563 | 10.06385 | 25000 ft | 486 kts | 4° |
| 2026-05-04 19:17 | 53.08961 | 10.07119 | 24590 ft | 483 kts | 4° |
| 2026-05-04 19:17 | 53.12289 | 10.07836 | 24009 ft | 483 kts | 4° |
| 2026-05-04 19:18 | 53.15586 | 10.08549 | 23357 ft | 479 kts | 4° |
| 2026-05-04 19:18 | 53.18894 | 10.09269 | 22630 ft | 475 kts | 4° |
| 2026-05-04 19:18 | 53.22141 | 10.09977 | 21858 ft | 469 kts | 4° |
| 2026-05-04 19:18 | 53.25366 | 10.10681 | 20980 ft | 464 kts | 4° |
| 2026-05-04 19:19 | 53.28545 | 10.11376 | 20109 ft | 458 kts | 5° |
| 2026-05-04 19:19 | 53.31679 | 10.12081 | 19244 ft | 452 kts | 6° |
| 2026-05-04 19:19 | 53.34672 | 10.13469 | 18415 ft | 435 kts | 21° |
| 2026-05-04 19:19 | 53.37147 | 10.16012 | 17530 ft | 425 kts | 38° |
| 2026-05-04 19:20 | 53.39112 | 10.19586 | 16600 ft | 401 kts | 52° |
| 2026-05-04 19:20 | 53.40674 | 10.23278 | 15718 ft | 378 kts | 54° |
| 2026-05-04 19:20 | 53.42143 | 10.26809 | 14854 ft | 360 kts | 54° |
| 2026-05-04 19:20 | 53.43554 | 10.30223 | 13989 ft | 351 kts | 54° |
| 2026-05-04 19:21 | 53.44926 | 10.33539 | 13121 ft | 345 kts | 54° |
| 2026-05-04 19:21 | 53.46274 | 10.36788 | 12194 ft | 332 kts | 54° |
| 2026-05-04 19:21 | 53.47569 | 10.39911 | 11302 ft | 322 kts | 54° |
| 2026-05-04 19:21 | 53.48846 | 10.42935 | 10453 ft | 314 kts | 50° |
| 2026-05-04 19:22 | 53.50133 | 10.45871 | 9610 ft | 322 kts | 49° |
| 2026-05-04 19:22 | 53.51694 | 10.48671 | 8696 ft | 327 kts | 32° |
| 2026-05-04 19:22 | 53.53752 | 10.50128 | 7808 ft | 326 kts | 4° |
| 2026-05-04 19:22 | 53.55993 | 10.49956 | 6946 ft | 323 kts | 344° |
| 2026-05-04 19:23 | 53.58193 | 10.49159 | 6065 ft | 325 kts | 345° |
| 2026-05-04 19:23 | 53.60389 | 10.48299 | 5411 ft | 320 kts | 344° |
| 2026-05-04 19:23 | 53.62514 | 10.47449 | 5057 ft | 306 kts | 344° |
| 2026-05-04 19:23 | 53.64511 | 10.46564 | 4790 ft | 290 kts | 339° |
| 2026-05-04 19:24 | 53.66264 | 10.45121 | 4533 ft | 275 kts | 326° |
| 2026-05-04 19:24 | 53.67816 | 10.43450 | 4270 ft | 262 kts | 324° |
| 2026-05-04 19:24 | 53.69267 | 10.41842 | 3983 ft | 237 kts | 324° |
| 2026-05-04 19:24 | 53.70624 | 10.40334 | 3723 ft | 228 kts | 324° |
| 2026-05-04 19:25 | 53.71934 | 10.38874 | 3474 ft | 227 kts | 324° |
| 2026-05-04 19:25 | 53.73235 | 10.37419 | 3220 ft | 223 kts | 324° |
| 2026-05-04 19:25 | 53.74515 | 10.35975 | 2992 ft | 217 kts | 324° |
| 2026-05-04 19:25 | 53.75732 | 10.34594 | 2960 ft | 205 kts | 324° |
| 2026-05-04 19:26 | 53.76886 | 10.33252 | 2956 ft | 201 kts | 321° |
| 2026-05-04 19:26 | 53.77791 | 10.31483 | 2967 ft | 201 kts | 292° |
| 2026-05-04 19:26 | 53.77815 | 10.29204 | 2989 ft | 192 kts | 250° |
| 2026-05-04 19:26 | 53.77107 | 10.27393 | 2988 ft | 181 kts | 230° |
| 2026-05-04 19:27 | 53.76280 | 10.25808 | 2987 ft | 179 kts | 231° |
| 2026-05-04 19:27 | 53.75490 | 10.24207 | 2979 ft | 172 kts | 232° |
| 2026-05-04 19:27 | 53.74773 | 10.22734 | 2969 ft | 157 kts | 233° |
| 2026-05-04 19:27 | 53.74091 | 10.21329 | 2977 ft | 153 kts | 233° |
| 2026-05-04 19:28 | 53.73419 | 10.19948 | 2987 ft | 153 kts | 233° |
| 2026-05-04 19:28 | 53.72735 | 10.18551 | 2902 ft | 155 kts | 232° |
| 2026-05-04 19:28 | 53.72057 | 10.17172 | 2699 ft | 148 kts | 232° |
| 2026-05-04 19:28 | 53.71416 | 10.15865 | 2500 ft | 142 kts | 232° |
| 2026-05-04 19:29 | 53.70801 | 10.14612 | 2308 ft | 133 kts | 232° |
| 2026-05-04 19:29 | 53.70232 | 10.13453 | 2131 ft | 124 kts | 232° |
| 2026-05-04 19:29 | 53.69689 | 10.12360 | 1992 ft | 122 kts | 229° |
| 2026-05-04 19:29 | 53.69097 | 10.11322 | 1798 ft | 123 kts | 219° |
| 2026-05-04 19:30 | 53.68526 | 10.10293 | 1658 ft | 122 kts | 245° |
| 2026-05-04 19:30 | 53.68089 | 10.09021 | 1475 ft | 126 kts | 232° |
| 2026-05-04 19:30 | 53.67507 | 10.07920 | 1305 ft | 124 kts | 230° |
| 2026-05-04 19:30 | 53.66964 | 10.06833 | 1134 ft | 122 kts | 233° |
| 2026-05-04 19:31 | 53.66418 | 10.05705 | 982 ft | 124 kts | 232° |
| 2026-05-04 19:31 | 53.65868 | 10.04603 | 838 ft | 124 kts | 231° |
| 2026-05-04 19:31 | 53.65323 | 10.03476 | 650 ft | 123 kts | 233° |
| 2026-05-04 19:31 | 53.64780 | 10.02370 | 461 ft | 125 kts | 233° |
| 2026-05-04 19:32 | 53.64309 | 10.01417 | 372 ft | 121 kts | 233° |
| 2026-05-04 19:32 | 53.63744 | 10.00268 | 206 ft | 123 kts | 233° |
| 2026-05-04 19:32 | 53.63222 | 9.99200 | 50 ft | 114 kts | 230° |
| 2026-05-04 19:32 | 53.62847 | 9.98439 | 50 ft | 44 kts | 231° |
| 2026-05-04 19:33 | 53.62796 | 9.98335 | 50 ft | 3 kts | 230° |
| 2026-05-04 19:33 | 53.62714 | 9.98166 | 49 ft | 31 kts | 231° |
| 2026-05-04 19:33 | 53.62572 | 9.97890 | 47 ft | 25 kts | 223° |
| 2026-05-04 19:33 | 53.62499 | 9.97799 | 47 ft | 8 kts | 191° |
| 2026-05-04 19:34 | 53.62451 | 9.97828 | 49 ft | 7 kts | 142° |
| 2026-05-04 19:34 | 53.62433 | 9.97894 | 51 ft | 6 kts | 98° |
| 2026-05-04 19:34 | 53.62439 | 9.97976 | 53 ft | 9 kts | 81° |
| 2026-05-04 19:34 | 53.62471 | 9.98087 | 53 ft | 12 kts | 58° |
| 2026-05-04 19:35 | 53.62530 | 9.98224 | 53 ft | 16 kts | 51° |
| 2026-05-04 19:35 | 53.62611 | 9.98392 | 53 ft | 21 kts | 51° |
| 2026-05-04 19:35 | 53.62713 | 9.98598 | 53 ft | 25 kts | 50° |
| 2026-05-04 19:35 | 53.62820 | 9.98811 | 53 ft | 18 kts | 51° |
| 2026-05-04 19:36 | 53.62898 | 9.98971 | 53 ft | 16 kts | 50° |
| 2026-05-04 19:36 | 53.62965 | 9.99106 | 53 ft | 8 kts | 50° |
| 2026-05-04 19:36 | 53.63009 | 9.99199 | 53 ft | 13 kts | 51° |
| 2026-05-04 19:36 | 53.63064 | 9.99319 | 53 ft | 6 kts | 54° |
| 2026-05-04 19:37 | 53.63069 | 9.99329 | 53 ft | 3 kts | 54° |
| 2026-05-04 19:37 | 53.63097 | 9.99395 | 53 ft | 11 kts | 54° |
| 2026-05-04 19:37 | 53.63151 | 9.99520 | 53 ft | 14 kts | 54° |
| 2026-05-04 19:37 | 53.63187 | 9.99596 | 53 ft | 0 kts | 51° |
| 2026-05-04 19:38 | 53.63203 | 9.99628 | 54 ft | 10 kts | 51° |
| 2026-05-04 19:38 | 53.63265 | 9.99739 | 51 ft | 15 kts | 44° |
| 2026-05-04 19:38 | 53.63336 | 9.99877 | 51 ft | 15 kts | 50° |
| 2026-05-04 19:38 | 53.63388 | 9.99980 | 48 ft | 13 kts | 50° |
| 2026-05-04 19:39 | 53.63422 | 10.00103 | 51 ft | 8 kts | 90° |
| 2026-05-04 19:39 | 53.63430 | 10.00192 | 52 ft | 9 kts | 85° |
| 2026-05-04 19:39 | 53.63430 | 10.00220 | 55 ft | 1 kts | 95° |
| 2026-05-04 19:39 | 53.63426 | 10.00258 | 48 ft | 6 kts | 98° |
| 2026-05-04 19:40 | 53.63424 | 10.00281 | 53 ft | 1 kts | 99° |
| 2026-05-04 19:40 | 53.63419 | 10.00325 | 55 ft | 4 kts | 99° |
| 2026-05-04 19:40 | 53.63419 | 10.00327 | 55 ft | 0 kts | 100° |
| 2026-05-04 19:40 | 53.63418 | 10.00336 | 55 ft | 0 kts | 101° |